sensor_id;sensor_type;location;lat;lon;timestamp;P1;durP1;ratioP1;P2;durP2;ratioP2
23586;SDS011;11971;51.148;4.104;2022-10-04T00:05:27;24.63;;;13.70;;
23586;SDS011;11971;51.148;4.104;2022-10-04T00:07:56;28.98;;;17.52;;
23586;SDS011;11971;51.148;4.104;2022-10-04T00:10:25;27.05;;;17.00;;
23586;SDS011;11971;51.148;4.104;2022-10-04T00:12:55;25.55;;;16.85;;
23586;SDS011;11971;51.148;4.104;2022-10-04T00:15:24;25.37;;;15.63;;
23586;SDS011;11971;51.148;4.104;2022-10-04T00:18:06;25.60;;;16.08;;
23586;SDS011;11971;51.148;4.104;2022-10-04T00:20:56;24.38;;;14.90;;
23586;SDS011;11971;51.148;4.104;2022-10-04T00:23:24;24.37;;;15.23;;
23586;SDS011;11971;51.148;4.104;2022-10-04T00:25:55;23.00;;;15.13;;
23586;SDS011;11971;51.148;4.104;2022-10-04T00:28:30;26.92;;;15.38;;
23586;SDS011;11971;51.148;4.104;2022-10-04T00:31:10;22.23;;;14.45;;
23586;SDS011;11971;51.148;4.104;2022-10-04T00:33:38;19.42;;;13.30;;
23586;SDS011;11971;51.148;4.104;2022-10-04T00:39:01;22.95;;;12.95;;
23586;SDS011;11971;51.148;4.104;2022-10-04T00:41:29;23.10;;;14.20;;
23586;SDS011;11971;51.148;4.104;2022-10-04T00:44:01;23.38;;;14.63;;
23586;SDS011;11971;51.148;4.104;2022-10-04T00:46:29;22.92;;;14.18;;
23586;SDS011;11971;51.148;4.104;2022-10-04T00:48:57;24.65;;;14.85;;
23586;SDS011;11971;51.148;4.104;2022-10-04T00:51:26;24.35;;;14.60;;
23586;SDS011;11971;51.148;4.104;2022-10-04T00:53:58;24.23;;;15.70;;
23586;SDS011;11971;51.148;4.104;2022-10-04T00:56:29;27.58;;;16.67;;
23586;SDS011;11971;51.148;4.104;2022-10-04T00:59:03;29.20;;;15.80;;
23586;SDS011;11971;51.148;4.104;2022-10-04T01:01:31;26.67;;;16.48;;
23586;SDS011;11971;51.148;4.104;2022-10-04T01:04:02;27.35;;;15.70;;
23586;SDS011;11971;51.148;4.104;2022-10-04T01:06:30;25.38;;;15.35;;
23586;SDS011;11971;51.148;4.104;2022-10-04T01:09:00;26.65;;;15.23;;
23586;SDS011;11971;51.148;4.104;2022-10-04T01:11:33;22.85;;;15.38;;
23586;SDS011;11971;51.148;4.104;2022-10-04T01:14:02;23.08;;;15.10;;
23586;SDS011;11971;51.148;4.104;2022-10-04T01:16:32;22.50;;;14.93;;
23586;SDS011;11971;51.148;4.104;2022-10-04T01:21:43;24.70;;;15.57;;
23586;SDS011;11971;51.148;4.104;2022-10-04T01:24:18;27.23;;;15.82;;
23586;SDS011;11971;51.148;4.104;2022-10-04T01:26:47;30.17;;;17.40;;
23586;SDS011;11971;51.148;4.104;2022-10-04T01:29:15;29.63;;;17.20;;
23586;SDS011;11971;51.148;4.104;2022-10-04T01:31:43;29.63;;;18.30;;
23586;SDS011;11971;51.148;4.104;2022-10-04T01:34:11;27.27;;;17.70;;
23586;SDS011;11971;51.148;4.104;2022-10-04T01:36:39;27.95;;;15.93;;
23586;SDS011;11971;51.148;4.104;2022-10-04T01:39:06;28.17;;;16.75;;
23586;SDS011;11971;51.148;4.104;2022-10-04T01:41:41;26.35;;;17.05;;
23586;SDS011;11971;51.148;4.104;2022-10-04T01:44:11;25.47;;;15.93;;
23586;SDS011;11971;51.148;4.104;2022-10-04T01:46:38;25.45;;;15.85;;
23586;SDS011;11971;51.148;4.104;2022-10-04T01:49:06;24.35;;;15.60;;
23586;SDS011;11971;51.148;4.104;2022-10-04T01:51:35;25.90;;;15.93;;
23586;SDS011;11971;51.148;4.104;2022-10-04T01:54:04;25.38;;;15.98;;
23586;SDS011;11971;51.148;4.104;2022-10-04T01:56:33;24.75;;;15.77;;
23586;SDS011;11971;51.148;4.104;2022-10-04T01:59:05;28.58;;;17.15;;
23586;SDS011;11971;51.148;4.104;2022-10-04T02:01:37;28.77;;;17.17;;
23586;SDS011;11971;51.148;4.104;2022-10-04T02:04:07;28.13;;;17.58;;
23586;SDS011;11971;51.148;4.104;2022-10-04T02:06:36;30.40;;;18.35;;
23586;SDS011;11971;51.148;4.104;2022-10-04T02:09:06;29.23;;;19.03;;
23586;SDS011;11971;51.148;4.104;2022-10-04T02:11:33;31.70;;;18.08;;
23586;SDS011;11971;51.148;4.104;2022-10-04T02:14:03;31.02;;;17.80;;
23586;SDS011;11971;51.148;4.104;2022-10-04T02:16:35;28.85;;;17.42;;
23586;SDS011;11971;51.148;4.104;2022-10-04T02:19:04;28.00;;;17.50;;
23586;SDS011;11971;51.148;4.104;2022-10-04T02:21:34;33.45;;;19.10;;
23586;SDS011;11971;51.148;4.104;2022-10-04T02:24:02;32.55;;;19.15;;
23586;SDS011;11971;51.148;4.104;2022-10-04T02:26:30;30.55;;;18.75;;
23586;SDS011;11971;51.148;4.104;2022-10-04T02:28:58;33.47;;;20.43;;
23586;SDS011;11971;51.148;4.104;2022-10-04T02:31:25;36.20;;;18.83;;
23586;SDS011;11971;51.148;4.104;2022-10-04T02:34:12;32.45;;;18.60;;
23586;SDS011;11971;51.148;4.104;2022-10-04T02:36:40;33.13;;;18.50;;
23586;SDS011;11971;51.148;4.104;2022-10-04T02:39:08;33.80;;;19.77;;
23586;SDS011;11971;51.148;4.104;2022-10-04T02:41:37;34.85;;;20.13;;
23586;SDS011;11971;51.148;4.104;2022-10-04T02:44:08;30.75;;;19.42;;
23586;SDS011;11971;51.148;4.104;2022-10-04T02:46:40;31.63;;;19.02;;
23586;SDS011;11971;51.148;4.104;2022-10-04T02:49:14;33.13;;;19.48;;
23586;SDS011;11971;51.148;4.104;2022-10-04T02:51:47;32.33;;;19.15;;
23586;SDS011;11971;51.148;4.104;2022-10-04T02:54:17;31.60;;;18.95;;
23586;SDS011;11971;51.148;4.104;2022-10-04T02:56:51;34.75;;;19.17;;
23586;SDS011;11971;51.148;4.104;2022-10-04T02:59:19;30.27;;;17.88;;
23586;SDS011;11971;51.148;4.104;2022-10-04T03:01:48;30.05;;;18.77;;
23586;SDS011;11971;51.148;4.104;2022-10-04T03:04:18;31.77;;;18.90;;
23586;SDS011;11971;51.148;4.104;2022-10-04T03:06:47;35.33;;;20.15;;
23586;SDS011;11971;51.148;4.104;2022-10-04T03:09:15;36.28;;;20.48;;
23586;SDS011;11971;51.148;4.104;2022-10-04T03:11:43;30.50;;;20.75;;
23586;SDS011;11971;51.148;4.104;2022-10-04T03:14:11;40.53;;;21.70;;
23586;SDS011;11971;51.148;4.104;2022-10-04T03:16:41;35.55;;;21.00;;
23586;SDS011;11971;51.148;4.104;2022-10-04T03:19:09;32.78;;;19.58;;
23586;SDS011;11971;51.148;4.104;2022-10-04T03:21:39;35.53;;;20.50;;
23586;SDS011;11971;51.148;4.104;2022-10-04T03:24:07;31.92;;;20.77;;
23586;SDS011;11971;51.148;4.104;2022-10-04T03:26:37;31.55;;;20.75;;
23586;SDS011;11971;51.148;4.104;2022-10-04T03:29:05;32.58;;;20.33;;
23586;SDS011;11971;51.148;4.104;2022-10-04T03:31:35;33.17;;;20.77;;
23586;SDS011;11971;51.148;4.104;2022-10-04T03:34:04;36.67;;;21.02;;
23586;SDS011;11971;51.148;4.104;2022-10-04T03:36:32;33.55;;;20.70;;
23586;SDS011;11971;51.148;4.104;2022-10-04T03:39:01;33.30;;;20.85;;
23586;SDS011;11971;51.148;4.104;2022-10-04T03:41:33;35.67;;;21.42;;
23586;SDS011;11971;51.148;4.104;2022-10-04T03:44:03;33.53;;;20.23;;
23586;SDS011;11971;51.148;4.104;2022-10-04T03:46:33;29.63;;;20.00;;
23586;SDS011;11971;51.148;4.104;2022-10-04T03:49:01;33.38;;;20.35;;
23586;SDS011;11971;51.148;4.104;2022-10-04T03:51:29;34.13;;;21.15;;
23586;SDS011;11971;51.148;4.104;2022-10-04T03:53:57;31.25;;;19.58;;
23586;SDS011;11971;51.148;4.104;2022-10-04T03:56:29;34.97;;;20.35;;
23586;SDS011;11971;51.148;4.104;2022-10-04T03:58:57;33.35;;;20.65;;
23586;SDS011;11971;51.148;4.104;2022-10-04T04:01:35;37.92;;;20.85;;
23586;SDS011;11971;51.148;4.104;2022-10-04T04:04:06;35.63;;;21.05;;
23586;SDS011;11971;51.148;4.104;2022-10-04T04:06:39;30.63;;;19.57;;
23586;SDS011;11971;51.148;4.104;2022-10-04T04:09:08;32.40;;;19.98;;
23586;SDS011;11971;51.148;4.104;2022-10-04T04:11:44;30.83;;;19.98;;
23586;SDS011;11971;51.148;4.104;2022-10-04T04:14:13;33.30;;;20.00;;
23586;SDS011;11971;51.148;4.104;2022-10-04T04:16:45;32.55;;;20.38;;
23586;SDS011;11971;51.148;4.104;2022-10-04T04:19:14;31.53;;;20.03;;
23586;SDS011;11971;51.148;4.104;2022-10-04T04:21:42;34.42;;;19.73;;
23586;SDS011;11971;51.148;4.104;2022-10-04T04:24:12;35.50;;;20.15;;
23586;SDS011;11971;51.148;4.104;2022-10-04T04:26:41;31.58;;;19.48;;
23586;SDS011;11971;51.148;4.104;2022-10-04T04:29:13;32.45;;;19.67;;
23586;SDS011;11971;51.148;4.104;2022-10-04T04:31:44;35.23;;;19.40;;
23586;SDS011;11971;51.148;4.104;2022-10-04T04:34:14;29.40;;;19.38;;
23586;SDS011;11971;51.148;4.104;2022-10-04T04:36:42;33.97;;;19.70;;
23586;SDS011;11971;51.148;4.104;2022-10-04T04:39:12;30.57;;;19.03;;
23586;SDS011;11971;51.148;4.104;2022-10-04T04:41:57;33.20;;;20.13;;
23586;SDS011;11971;51.148;4.104;2022-10-04T04:44:27;34.30;;;20.23;;
23586;SDS011;11971;51.148;4.104;2022-10-04T04:46:54;32.63;;;20.13;;
23586;SDS011;11971;51.148;4.104;2022-10-04T04:49:24;32.40;;;19.45;;
23586;SDS011;11971;51.148;4.104;2022-10-04T04:51:51;34.07;;;19.70;;
23586;SDS011;11971;51.148;4.104;2022-10-04T04:54:21;30.88;;;19.20;;
23586;SDS011;11971;51.148;4.104;2022-10-04T04:56:48;35.75;;;19.35;;
23586;SDS011;11971;51.148;4.104;2022-10-04T04:59:16;33.10;;;19.85;;
23586;SDS011;11971;51.148;4.104;2022-10-04T05:01:46;33.63;;;19.58;;
23586;SDS011;11971;51.148;4.104;2022-10-04T05:04:18;31.08;;;19.33;;
23586;SDS011;11971;51.148;4.104;2022-10-04T05:06:46;26.88;;;17.70;;
23586;SDS011;11971;51.148;4.104;2022-10-04T05:09:21;33.28;;;17.25;;
23586;SDS011;11971;51.148;4.104;2022-10-04T05:11:48;26.20;;;16.80;;
23586;SDS011;11971;51.148;4.104;2022-10-04T05:14:16;26.77;;;16.10;;
23586;SDS011;11971;51.148;4.104;2022-10-04T05:16:46;28.13;;;16.50;;
23586;SDS011;11971;51.148;4.104;2022-10-04T05:19:15;26.33;;;16.90;;
23586;SDS011;11971;51.148;4.104;2022-10-04T05:21:45;27.60;;;16.38;;
23586;SDS011;11971;51.148;4.104;2022-10-04T05:24:17;28.80;;;16.83;;
23586;SDS011;11971;51.148;4.104;2022-10-04T05:26:47;27.42;;;16.42;;
23586;SDS011;11971;51.148;4.104;2022-10-04T05:29:16;27.10;;;16.30;;
23586;SDS011;11971;51.148;4.104;2022-10-04T05:31:46;29.70;;;17.10;;
23586;SDS011;11971;51.148;4.104;2022-10-04T05:34:18;31.13;;;18.35;;
23586;SDS011;11971;51.148;4.104;2022-10-04T05:36:50;30.60;;;18.98;;
23586;SDS011;11971;51.148;4.104;2022-10-04T05:39:23;30.65;;;18.05;;
23586;SDS011;11971;51.148;4.104;2022-10-04T05:41:53;26.33;;;17.35;;
23586;SDS011;11971;51.148;4.104;2022-10-04T05:44:23;24.70;;;16.73;;
23586;SDS011;11971;51.148;4.104;2022-10-04T05:46:52;25.17;;;16.50;;
23586;SDS011;11971;51.148;4.104;2022-10-04T05:49:20;27.33;;;16.98;;
23586;SDS011;11971;51.148;4.104;2022-10-04T05:51:50;29.23;;;16.85;;
23586;SDS011;11971;51.148;4.104;2022-10-04T05:54:19;28.50;;;17.55;;
23586;SDS011;11971;51.148;4.104;2022-10-04T05:59:34;25.77;;;16.40;;
23586;SDS011;11971;51.148;4.104;2022-10-04T06:02:06;28.70;;;16.40;;
23586;SDS011;11971;51.148;4.104;2022-10-04T06:05:00;26.13;;;16.65;;
23586;SDS011;11971;51.148;4.104;2022-10-04T06:07:33;28.37;;;17.07;;
23586;SDS011;11971;51.148;4.104;2022-10-04T06:10:06;29.05;;;18.10;;
23586;SDS011;11971;51.148;4.104;2022-10-04T06:12:39;32.28;;;18.73;;
23586;SDS011;11971;51.148;4.104;2022-10-04T06:17:57;37.20;;;19.58;;
23586;SDS011;11971;51.148;4.104;2022-10-04T06:20:39;31.50;;;18.90;;
23586;SDS011;11971;51.148;4.104;2022-10-04T06:23:11;34.50;;;18.83;;
23586;SDS011;11971;51.148;4.104;2022-10-04T06:25:39;29.60;;;18.38;;
23586;SDS011;11971;51.148;4.104;2022-10-04T06:28:12;29.97;;;18.70;;
23586;SDS011;11971;51.148;4.104;2022-10-04T06:30:45;30.25;;;18.33;;
23586;SDS011;11971;51.148;4.104;2022-10-04T06:33:22;31.50;;;18.40;;
23586;SDS011;11971;51.148;4.104;2022-10-04T06:35:59;30.55;;;17.90;;
23586;SDS011;11971;51.148;4.104;2022-10-04T06:41:31;29.88;;;17.08;;
23586;SDS011;11971;51.148;4.104;2022-10-04T06:46:47;28.02;;;15.93;;
23586;SDS011;11971;51.148;4.104;2022-10-04T06:49:27;29.17;;;17.30;;
23586;SDS011;11971;51.148;4.104;2022-10-04T06:52:04;29.17;;;16.83;;
23586;SDS011;11971;51.148;4.104;2022-10-04T06:54:41;30.80;;;17.92;;
23586;SDS011;11971;51.148;4.104;2022-10-04T06:57:15;27.10;;;17.60;;
23586;SDS011;11971;51.148;4.104;2022-10-04T06:59:53;32.15;;;16.73;;
23586;SDS011;11971;51.148;4.104;2022-10-04T07:02:24;26.92;;;16.90;;
23586;SDS011;11971;51.148;4.104;2022-10-04T07:04:55;26.38;;;15.52;;
23586;SDS011;11971;51.148;4.104;2022-10-04T07:07:24;26.60;;;15.38;;
23586;SDS011;11971;51.148;4.104;2022-10-04T07:10:02;28.08;;;15.75;;
23586;SDS011;11971;51.148;4.104;2022-10-04T07:12:32;26.23;;;14.93;;
23586;SDS011;11971;51.148;4.104;2022-10-04T07:15:02;26.17;;;14.88;;
23586;SDS011;11971;51.148;4.104;2022-10-04T07:17:34;25.70;;;14.70;;
23586;SDS011;11971;51.148;4.104;2022-10-04T07:20:05;24.40;;;14.70;;
23586;SDS011;11971;51.148;4.104;2022-10-04T07:22:33;23.13;;;14.60;;
23586;SDS011;11971;51.148;4.104;2022-10-04T07:25:04;23.15;;;13.88;;
23586;SDS011;11971;51.148;4.104;2022-10-04T07:27:33;24.20;;;15.13;;
23586;SDS011;11971;51.148;4.104;2022-10-04T07:30:03;21.88;;;14.20;;
23586;SDS011;11971;51.148;4.104;2022-10-04T07:32:31;22.35;;;13.45;;
23586;SDS011;11971;51.148;4.104;2022-10-04T07:35:01;22.58;;;14.00;;
23586;SDS011;11971;51.148;4.104;2022-10-04T07:37:33;23.70;;;14.35;;
23586;SDS011;11971;51.148;4.104;2022-10-04T07:40:03;21.95;;;13.95;;
23586;SDS011;11971;51.148;4.104;2022-10-04T07:42:34;21.63;;;13.10;;
23586;SDS011;11971;51.148;4.104;2022-10-04T07:45:12;20.88;;;12.93;;
23586;SDS011;11971;51.148;4.104;2022-10-04T07:47:42;25.07;;;13.80;;
23586;SDS011;11971;51.148;4.104;2022-10-04T07:52:58;23.83;;;12.87;;
23586;SDS011;11971;51.148;4.104;2022-10-04T07:55:28;19.63;;;12.13;;
23586;SDS011;11971;51.148;4.104;2022-10-04T07:58:01;22.40;;;12.75;;
23586;SDS011;11971;51.148;4.104;2022-10-04T08:00:35;23.67;;;13.65;;
23586;SDS011;11971;51.148;4.104;2022-10-04T08:03:11;20.13;;;12.77;;
23586;SDS011;11971;51.148;4.104;2022-10-04T08:05:41;24.20;;;12.93;;
23586;SDS011;11971;51.148;4.104;2022-10-04T08:08:28;23.92;;;13.02;;
23586;SDS011;11971;51.148;4.104;2022-10-04T08:11:04;22.40;;;12.30;;
23586;SDS011;11971;51.148;4.104;2022-10-04T08:13:37;18.40;;;12.48;;
23586;SDS011;11971;51.148;4.104;2022-10-04T08:16:09;20.98;;;12.32;;
23586;SDS011;11971;51.148;4.104;2022-10-04T08:18:42;23.48;;;12.63;;
23586;SDS011;11971;51.148;4.104;2022-10-04T08:21:16;21.95;;;12.30;;
23586;SDS011;11971;51.148;4.104;2022-10-04T08:24:05;22.57;;;12.67;;
23586;SDS011;11971;51.148;4.104;2022-10-04T08:26:44;19.52;;;12.00;;
23586;SDS011;11971;51.148;4.104;2022-10-04T08:29:17;19.77;;;12.00;;
23586;SDS011;11971;51.148;4.104;2022-10-04T08:32:08;18.65;;;11.88;;
23586;SDS011;11971;51.148;4.104;2022-10-04T08:34:43;20.63;;;12.57;;
23586;SDS011;11971;51.148;4.104;2022-10-04T08:37:15;20.08;;;12.02;;
23586;SDS011;11971;51.148;4.104;2022-10-04T08:39:53;22.00;;;12.23;;
23586;SDS011;11971;51.148;4.104;2022-10-04T08:45:15;20.03;;;12.00;;
23586;SDS011;11971;51.148;4.104;2022-10-04T08:47:54;21.52;;;12.80;;
23586;SDS011;11971;51.148;4.104;2022-10-04T08:50:36;22.90;;;12.27;;
23586;SDS011;11971;51.148;4.104;2022-10-04T08:53:26;18.25;;;12.10;;
23586;SDS011;11971;51.148;4.104;2022-10-04T08:56:06;18.38;;;12.45;;
23586;SDS011;11971;51.148;4.104;2022-10-04T09:01:30;20.80;;;12.15;;
23586;SDS011;11971;51.148;4.104;2022-10-04T09:06:53;22.37;;;11.80;;
23586;SDS011;11971;51.148;4.104;2022-10-04T09:12:17;17.45;;;11.57;;
23586;SDS011;11971;51.148;4.104;2022-10-04T09:14:54;19.45;;;11.43;;
23586;SDS011;11971;51.148;4.104;2022-10-04T09:17:27;20.70;;;12.43;;
23586;SDS011;11971;51.148;4.104;2022-10-04T09:20:00;18.58;;;11.52;;
23586;SDS011;11971;51.148;4.104;2022-10-04T09:22:42;19.85;;;11.10;;
23586;SDS011;11971;51.148;4.104;2022-10-04T09:28:18;22.52;;;11.15;;
23586;SDS011;11971;51.148;4.104;2022-10-04T09:30:52;18.65;;;10.90;;
23586;SDS011;11971;51.148;4.104;2022-10-04T09:33:30;18.83;;;10.05;;
23586;SDS011;11971;51.148;4.104;2022-10-04T09:36:08;20.45;;;10.68;;
23586;SDS011;11971;51.148;4.104;2022-10-04T09:41:30;17.30;;;10.90;;
23586;SDS011;11971;51.148;4.104;2022-10-04T09:44:17;18.95;;;10.30;;
23586;SDS011;11971;51.148;4.104;2022-10-04T09:49:37;15.70;;;9.70;;
23586;SDS011;11971;51.148;4.104;2022-10-04T09:52:10;18.90;;;9.75;;
23586;SDS011;11971;51.148;4.104;2022-10-04T09:54:53;14.68;;;9.38;;
23586;SDS011;11971;51.148;4.104;2022-10-04T09:57:26;13.38;;;9.15;;
23586;SDS011;11971;51.148;4.104;2022-10-04T10:00:08;16.20;;;9.48;;
23586;SDS011;11971;51.148;4.104;2022-10-04T10:02:52;14.88;;;9.00;;
23586;SDS011;11971;51.148;4.104;2022-10-04T10:05:34;14.40;;;8.87;;
23586;SDS011;11971;51.148;4.104;2022-10-04T10:08:08;16.25;;;9.10;;
23586;SDS011;11971;51.148;4.104;2022-10-04T10:10:40;14.65;;;8.82;;
23586;SDS011;11971;51.148;4.104;2022-10-04T10:13:39;11.87;;;8.40;;
23586;SDS011;11971;51.148;4.104;2022-10-04T10:16:20;17.30;;;9.13;;
23586;SDS011;11971;51.148;4.104;2022-10-04T10:18:55;13.35;;;8.20;;
23586;SDS011;11971;51.148;4.104;2022-10-04T10:21:26;14.70;;;7.95;;
23586;SDS011;11971;51.148;4.104;2022-10-04T10:24:08;14.03;;;7.93;;
23586;SDS011;11971;51.148;4.104;2022-10-04T10:26:47;13.40;;;7.40;;
23586;SDS011;11971;51.148;4.104;2022-10-04T10:32:14;14.50;;;8.00;;
23586;SDS011;11971;51.148;4.104;2022-10-04T10:37:37;11.77;;;7.90;;
23586;SDS011;11971;51.148;4.104;2022-10-04T10:42:57;13.00;;;7.60;;
23586;SDS011;11971;51.148;4.104;2022-10-04T10:45:32;12.00;;;7.38;;
23586;SDS011;11971;51.148;4.104;2022-10-04T10:48:07;12.02;;;7.47;;
23586;SDS011;11971;51.148;4.104;2022-10-04T10:50:49;13.48;;;7.70;;
23586;SDS011;11971;51.148;4.104;2022-10-04T10:53:29;16.17;;;7.90;;
23586;SDS011;11971;51.148;4.104;2022-10-04T10:56:03;11.53;;;7.67;;
23586;SDS011;11971;51.148;4.104;2022-10-04T11:01:30;13.30;;;7.15;;
23586;SDS011;11971;51.148;4.104;2022-10-04T11:04:16;12.55;;;7.40;;
23586;SDS011;11971;51.148;4.104;2022-10-04T11:09:29;18.60;;;7.75;;
23586;SDS011;11971;51.148;4.104;2022-10-04T11:17:28;12.95;;;7.35;;
23586;SDS011;11971;51.148;4.104;2022-10-04T11:23:13;12.68;;;7.57;;
23586;SDS011;11971;51.148;4.104;2022-10-04T11:25:57;12.98;;;7.95;;
23586;SDS011;11971;51.148;4.104;2022-10-04T11:28:30;12.30;;;7.57;;
23586;SDS011;11971;51.148;4.104;2022-10-04T11:33:53;12.25;;;7.22;;
23586;SDS011;11971;51.148;4.104;2022-10-04T11:36:25;12.30;;;7.60;;
23586;SDS011;11971;51.148;4.104;2022-10-04T11:39:01;10.18;;;6.80;;
23586;SDS011;11971;51.148;4.104;2022-10-04T11:41:40;12.07;;;7.15;;
23586;SDS011;11971;51.148;4.104;2022-10-04T11:46:57;11.73;;;6.72;;
23586;SDS011;11971;51.148;4.104;2022-10-04T11:49:48;12.23;;;6.63;;
23586;SDS011;11971;51.148;4.104;2022-10-04T12:00:45;13.60;;;7.82;;
23586;SDS011;11971;51.148;4.104;2022-10-04T12:03:26;13.57;;;8.30;;
23586;SDS011;11971;51.148;4.104;2022-10-04T12:06:07;13.63;;;8.10;;
23586;SDS011;11971;51.148;4.104;2022-10-04T12:08:43;13.05;;;8.27;;
23586;SDS011;11971;51.148;4.104;2022-10-04T12:14:16;12.18;;;8.00;;
23586;SDS011;11971;51.148;4.104;2022-10-04T12:19:55;14.68;;;9.07;;
23586;SDS011;11971;51.148;4.104;2022-10-04T12:22:38;12.30;;;7.67;;
23586;SDS011;11971;51.148;4.104;2022-10-04T12:27:55;14.02;;;7.88;;
23586;SDS011;11971;51.148;4.104;2022-10-04T12:30:37;13.60;;;7.60;;
23586;SDS011;11971;51.148;4.104;2022-10-04T12:33:10;14.00;;;7.65;;
23586;SDS011;11971;51.148;4.104;2022-10-04T12:35:44;12.40;;;7.43;;
23586;SDS011;11971;51.148;4.104;2022-10-04T12:41:02;11.75;;;6.53;;
23586;SDS011;11971;51.148;4.104;2022-10-04T12:43:38;11.70;;;6.40;;
23586;SDS011;11971;51.148;4.104;2022-10-04T12:46:11;15.38;;;6.50;;
23586;SDS011;11971;51.148;4.104;2022-10-04T12:48:46;15.20;;;6.00;;
23586;SDS011;11971;51.148;4.104;2022-10-04T12:51:21;18.93;;;7.13;;
23586;SDS011;11971;51.148;4.104;2022-10-04T12:53:54;12.65;;;6.65;;
23586;SDS011;11971;51.148;4.104;2022-10-04T12:56:33;11.77;;;6.25;;
23586;SDS011;11971;51.148;4.104;2022-10-04T12:59:05;9.32;;;5.80;;
23586;SDS011;11971;51.148;4.104;2022-10-04T13:01:36;10.20;;;5.50;;
23586;SDS011;11971;51.148;4.104;2022-10-04T13:04:18;11.23;;;5.87;;
23586;SDS011;11971;51.148;4.104;2022-10-04T13:06:52;10.98;;;5.50;;
23586;SDS011;11971;51.148;4.104;2022-10-04T13:09:24;11.25;;;5.90;;
23586;SDS011;11971;51.148;4.104;2022-10-04T13:11:57;9.85;;;5.45;;
23586;SDS011;11971;51.148;4.104;2022-10-04T13:14:34;7.78;;;4.70;;
23586;SDS011;11971;51.148;4.104;2022-10-04T13:17:09;9.10;;;4.55;;
23586;SDS011;11971;51.148;4.104;2022-10-04T13:19:41;7.70;;;4.67;;
23586;SDS011;11971;51.148;4.104;2022-10-04T13:22:33;10.50;;;5.57;;
23586;SDS011;11971;51.148;4.104;2022-10-04T13:25:08;11.00;;;5.50;;
23586;SDS011;11971;51.148;4.104;2022-10-04T13:27:39;8.60;;;5.43;;
23586;SDS011;11971;51.148;4.104;2022-10-04T13:30:15;8.55;;;4.72;;
23586;SDS011;11971;51.148;4.104;2022-10-04T13:33:04;11.38;;;5.50;;
23586;SDS011;11971;51.148;4.104;2022-10-04T13:35:38;9.52;;;5.50;;
23586;SDS011;11971;51.148;4.104;2022-10-04T13:38:17;9.30;;;5.28;;
23586;SDS011;11971;51.148;4.104;2022-10-04T13:40:54;8.75;;;5.15;;
23586;SDS011;11971;51.148;4.104;2022-10-04T13:43:39;11.27;;;5.13;;
23586;SDS011;11971;51.148;4.104;2022-10-04T13:46:15;10.02;;;5.10;;
23586;SDS011;11971;51.148;4.104;2022-10-04T13:48:56;9.73;;;5.20;;
23586;SDS011;11971;51.148;4.104;2022-10-04T13:51:30;8.55;;;4.75;;
23586;SDS011;11971;51.148;4.104;2022-10-04T13:54:02;8.82;;;4.63;;
23586;SDS011;11971;51.148;4.104;2022-10-04T13:56:55;8.32;;;4.70;;
23586;SDS011;11971;51.148;4.104;2022-10-04T13:59:26;6.18;;;4.32;;
23586;SDS011;11971;51.148;4.104;2022-10-04T14:02:10;9.00;;;4.63;;
23586;SDS011;11971;51.148;4.104;2022-10-04T14:07:39;8.63;;;4.30;;
23586;SDS011;11971;51.148;4.104;2022-10-04T14:10:30;7.95;;;4.10;;
23586;SDS011;11971;51.148;4.104;2022-10-04T14:15:49;6.38;;;4.00;;
23586;SDS011;11971;51.148;4.104;2022-10-04T14:21:15;8.15;;;3.90;;
23586;SDS011;11971;51.148;4.104;2022-10-04T14:23:47;7.18;;;4.13;;
23586;SDS011;11971;51.148;4.104;2022-10-04T14:26:35;6.57;;;3.73;;
23586;SDS011;11971;51.148;4.104;2022-10-04T14:32:13;7.35;;;3.90;;
23586;SDS011;11971;51.148;4.104;2022-10-04T14:34:54;7.65;;;3.80;;
23586;SDS011;11971;51.148;4.104;2022-10-04T14:37:36;6.13;;;3.67;;
23586;SDS011;11971;51.148;4.104;2022-10-04T14:40:19;5.60;;;3.38;;
23586;SDS011;11971;51.148;4.104;2022-10-04T14:43:11;5.88;;;3.58;;
23586;SDS011;11971;51.148;4.104;2022-10-04T14:45:43;7.53;;;3.55;;
23586;SDS011;11971;51.148;4.104;2022-10-04T14:48:26;6.65;;;3.30;;
23586;SDS011;11971;51.148;4.104;2022-10-04T14:51:02;6.32;;;3.25;;
23586;SDS011;11971;51.148;4.104;2022-10-04T14:53:38;8.60;;;3.47;;
23586;SDS011;11971;51.148;4.104;2022-10-04T14:59:00;9.50;;;5.25;;
23586;SDS011;11971;51.148;4.104;2022-10-04T15:01:30;4.50;;;3.10;;
23586;SDS011;11971;51.148;4.104;2022-10-04T15:06:46;6.25;;;2.88;;
23586;SDS011;11971;51.148;4.104;2022-10-04T15:09:23;4.30;;;2.80;;
23586;SDS011;11971;51.148;4.104;2022-10-04T15:11:55;5.20;;;2.72;;
23586;SDS011;11971;51.148;4.104;2022-10-04T15:14:28;4.13;;;2.80;;
23586;SDS011;11971;51.148;4.104;2022-10-04T15:16:58;4.93;;;2.90;;
23586;SDS011;11971;51.148;4.104;2022-10-04T15:19:27;6.97;;;3.13;;
23586;SDS011;11971;51.148;4.104;2022-10-04T15:22:03;6.55;;;2.97;;
23586;SDS011;11971;51.148;4.104;2022-10-04T15:24:42;7.43;;;2.72;;
23586;SDS011;11971;51.148;4.104;2022-10-04T15:29:57;5.63;;;3.10;;
23586;SDS011;11971;51.148;4.104;2022-10-04T15:32:27;6.35;;;3.00;;
23586;SDS011;11971;51.148;4.104;2022-10-04T15:35:01;5.88;;;3.13;;
23586;SDS011;11971;51.148;4.104;2022-10-04T15:37:34;5.57;;;3.10;;
23586;SDS011;11971;51.148;4.104;2022-10-04T15:42:55;6.15;;;3.35;;
23586;SDS011;11971;51.148;4.104;2022-10-04T15:45:32;5.55;;;3.20;;
23586;SDS011;11971;51.148;4.104;2022-10-04T15:48:05;7.30;;;3.30;;
23586;SDS011;11971;51.148;4.104;2022-10-04T15:50:36;6.33;;;3.10;;
23586;SDS011;11971;51.148;4.104;2022-10-04T15:53:14;7.22;;;3.15;;
23586;SDS011;11971;51.148;4.104;2022-10-04T15:55:55;6.50;;;3.30;;
23586;SDS011;11971;51.148;4.104;2022-10-04T15:58:29;6.68;;;3.50;;
23586;SDS011;11971;51.148;4.104;2022-10-04T16:03:44;6.68;;;3.80;;
23586;SDS011;11971;51.148;4.104;2022-10-04T16:06:19;6.33;;;3.70;;
23586;SDS011;11971;51.148;4.104;2022-10-04T16:09:01;9.55;;;3.80;;
23586;SDS011;11971;51.148;4.104;2022-10-04T16:11:34;5.88;;;3.50;;
23586;SDS011;11971;51.148;4.104;2022-10-04T16:14:12;7.65;;;3.65;;
23586;SDS011;11971;51.148;4.104;2022-10-04T16:19:50;5.17;;;3.50;;
23586;SDS011;11971;51.148;4.104;2022-10-04T16:22:26;6.05;;;3.60;;
23586;SDS011;11971;51.148;4.104;2022-10-04T16:24:53;7.15;;;3.80;;
23586;SDS011;11971;51.148;4.104;2022-10-04T16:27:33;6.95;;;3.83;;
23586;SDS011;11971;51.148;4.104;2022-10-04T16:30:04;7.82;;;3.90;;
23586;SDS011;11971;51.148;4.104;2022-10-04T16:32:35;8.57;;;3.85;;
23586;SDS011;11971;51.148;4.104;2022-10-04T16:35:16;7.05;;;4.35;;
23586;SDS011;11971;51.148;4.104;2022-10-04T16:37:53;7.82;;;4.18;;
23586;SDS011;11971;51.148;4.104;2022-10-04T16:40:24;10.00;;;4.50;;
23586;SDS011;11971;51.148;4.104;2022-10-04T16:42:54;8.30;;;4.43;;
23586;SDS011;11971;51.148;4.104;2022-10-04T16:45:37;9.38;;;4.43;;
23586;SDS011;11971;51.148;4.104;2022-10-04T16:48:10;6.93;;;4.35;;
23586;SDS011;11971;51.148;4.104;2022-10-04T16:53:30;7.60;;;4.97;;
23586;SDS011;11971;51.148;4.104;2022-10-04T16:56:11;8.07;;;5.15;;
23586;SDS011;11971;51.148;4.104;2022-10-04T16:58:48;10.90;;;5.23;;
23586;SDS011;11971;51.148;4.104;2022-10-04T17:01:20;9.27;;;5.20;;
23586;SDS011;11971;51.148;4.104;2022-10-04T17:03:53;11.30;;;5.77;;
23586;SDS011;11971;51.148;4.104;2022-10-04T17:06:24;9.30;;;5.78;;
23586;SDS011;11971;51.148;4.104;2022-10-04T17:09:10;10.35;;;5.75;;